createdAt,value
2019-04-27T00:00:18.126Z,8.73
2019-04-27T00:01:18.072Z,8.70
2019-04-27T00:02:22.136Z,8.69
2019-04-27T00:03:18.004Z,8.73
2019-04-27T00:04:19.273Z,8.69
2019-04-27T00:05:17.853Z,8.67
2019-04-27T00:06:17.801Z,8.67
2019-04-27T00:07:21.221Z,8.67
2019-04-27T00:08:17.727Z,8.64
2019-04-27T00:09:17.642Z,8.73
2019-04-27T00:10:20.419Z,8.73
2019-04-27T00:11:17.524Z,8.69
2019-04-27T00:12:22.873Z,8.70
2019-04-27T00:13:17.453Z,8.69
2019-04-27T00:14:18.178Z,8.71
2019-04-27T00:15:17.309Z,8.58
2019-04-27T00:16:17.254Z,8.69
2019-04-27T00:17:21.051Z,8.74
2019-04-27T00:18:17.145Z,8.60
2019-04-27T00:19:17.091Z,8.70
2019-04-27T00:20:17.056Z,8.73
2019-04-27T00:21:16.980Z,8.73
2019-04-27T00:22:16.978Z,8.76
2019-04-27T00:23:16.874Z,8.69
2019-04-27T00:24:16.822Z,8.70
2019-04-27T00:25:16.772Z,8.63
2019-04-27T00:26:16.709Z,8.64
2019-04-27T00:27:16.688Z,8.71
2019-04-27T00:28:16.597Z,8.74
2019-04-27T00:29:16.549Z,8.71
2019-04-27T00:30:16.497Z,8.67
2019-04-27T00:31:16.435Z,8.64
2019-04-27T00:32:16.422Z,8.69
2019-04-27T00:33:16.329Z,8.66
2019-04-27T00:34:16.274Z,8.70
2019-04-27T00:35:16.217Z,8.71
2019-04-27T00:36:16.171Z,8.76
2019-04-27T00:37:16.142Z,8.70
2019-04-27T00:38:16.065Z,8.76
2019-04-27T00:39:16.008Z,8.73
2019-04-27T00:40:15.954Z,8.74
2019-04-27T00:41:15.923Z,8.76
2019-04-27T00:42:15.841Z,8.70
2019-04-27T00:43:15.816Z,8.73
2019-04-27T00:44:15.730Z,8.70
2019-04-27T00:45:15.676Z,8.74
2019-04-27T00:46:15.622Z,8.73
2019-04-27T00:47:15.567Z,8.73
2019-04-27T00:48:15.554Z,8.70
2019-04-27T00:49:15.459Z,8.71
2019-04-27T00:50:15.405Z,8.67
2019-04-27T00:51:15.350Z,8.79
2019-04-27T00:52:15.295Z,8.66
2019-04-27T00:53:15.288Z,8.66
2019-04-27T00:54:15.187Z,8.66
2019-04-27T00:55:15.133Z,8.66
2019-04-27T00:56:15.077Z,8.69
2019-04-27T00:57:15.023Z,8.66
2019-04-27T00:58:14.993Z,8.73
2019-04-27T00:59:14.915Z,8.64
2019-04-27T01:00:14.895Z,8.70
2019-04-27T01:01:14.961Z,8.66
2019-04-27T01:02:14.752Z,8.71
2019-04-27T01:03:14.709Z,8.64
2019-04-27T01:04:14.644Z,8.69
2019-04-27T01:05:14.627Z,8.60
2019-04-27T01:06:14.926Z,8.53
2019-04-27T01:07:14.487Z,8.58
2019-04-27T01:08:14.426Z,8.60
2019-04-27T01:09:14.369Z,8.63
2019-04-27T01:10:14.349Z,8.52
2019-04-27T01:11:14.264Z,8.53
2019-04-27T01:12:14.207Z,8.55
2019-04-27T01:13:14.154Z,8.48
2019-04-27T01:14:14.101Z,8.49
2019-04-27T01:15:14.079Z,8.51
2019-04-27T01:16:17.445Z,8.42
2019-04-27T01:17:13.936Z,8.42
2019-04-27T01:18:15.519Z,8.33
2019-04-27T01:19:13.831Z,8.33
2019-04-27T01:20:13.812Z,8.38
2019-04-27T01:21:13.719Z,8.33
2019-04-27T01:22:13.667Z,8.31
2019-04-27T01:23:13.609Z,8.33
2019-04-27T01:24:13.557Z,8.36
2019-04-27T01:25:13.533Z,8.30
2019-04-27T01:26:13.448Z,8.31
2019-04-27T01:27:13.392Z,8.20
2019-04-27T01:28:13.339Z,8.30
2019-04-27T01:29:13.315Z,8.23
2019-04-27T01:30:13.228Z,8.23
2019-04-27T01:31:13.177Z,8.33
2019-04-27T01:32:13.152Z,8.23
2019-04-27T01:33:13.067Z,8.34
2019-04-27T01:34:13.013Z,8.20
2019-04-27T01:35:12.957Z,8.16
2019-04-27T01:36:12.903Z,8.12
2019-04-27T01:37:12.880Z,8.12
2019-04-27T01:38:12.793Z,7.98
2019-04-27T01:39:12.738Z,8.01
2019-04-27T01:40:12.717Z,7.97
2019-04-27T01:41:12.631Z,8.01
2019-04-27T01:42:12.573Z,8.00
2019-04-27T01:43:12.553Z,7.95
2019-04-27T01:44:12.466Z,7.97
2019-04-27T01:45:12.441Z,8.00
2019-04-27T01:46:12.358Z,7.97
2019-04-27T01:47:12.307Z,7.91
2019-04-27T01:48:22.908Z,7.91
2019-04-27T01:49:12.195Z,7.76
2019-04-27T01:50:12.137Z,7.75
2019-04-27T01:51:12.082Z,7.77
2019-04-27T01:52:12.053Z,7.76
2019-04-27T01:53:11.979Z,7.77
2019-04-27T01:54:11.919Z,7.60
2019-04-27T01:55:11.862Z,7.72
2019-04-27T01:56:11.810Z,7.63
2019-04-27T01:57:11.789Z,7.70
2019-04-27T01:58:11.700Z,7.63
2019-04-27T01:59:11.646Z,7.69
2019-04-27T02:00:11.590Z,7.66
2019-04-27T02:01:11.539Z,7.67
2019-04-27T02:02:11.531Z,7.66
2019-04-27T02:03:11.427Z,7.63
2019-04-27T02:04:11.371Z,7.56
2019-04-27T02:05:11.315Z,7.60
2019-04-27T02:06:11.265Z,7.51
2019-04-27T02:07:11.252Z,7.38
2019-04-27T02:08:11.152Z,7.42
2019-04-27T02:09:11.099Z,7.39
2019-04-27T02:10:11.042Z,7.33
2019-04-27T02:11:11.109Z,7.28
2019-04-27T02:12:10.970Z,7.17
2019-04-27T02:13:10.880Z,7.15
2019-04-27T02:14:10.823Z,7.13
2019-04-27T02:15:10.810Z,7.05
2019-04-27T02:16:10.713Z,7.03
2019-04-27T02:17:10.692Z,7.20
2019-04-27T02:18:10.606Z,7.11
2019-04-27T02:19:11.330Z,7.21
2019-04-27T02:20:10.526Z,7.11
2019-04-27T02:21:10.440Z,7.18
2019-04-27T02:22:10.383Z,7.17
2019-04-27T02:23:10.328Z,7.14
2019-04-27T02:24:11.264Z,7.17
2019-04-27T02:25:10.256Z,7.17
2019-04-27T02:26:10.167Z,7.11
2019-04-27T02:27:10.109Z,7.20
2019-04-27T02:28:10.053Z,7.18
2019-04-27T02:29:09.997Z,7.20
2019-04-27T02:30:11.649Z,7.03
2019-04-27T02:31:10.064Z,7.06
2019-04-27T02:32:10.703Z,7.13
2019-04-27T02:33:12.660Z,7.15
2019-04-27T02:34:09.726Z,7.23
2019-04-27T02:35:09.710Z,7.15
2019-04-27T02:36:14.834Z,7.17
2019-04-27T02:37:10.287Z,7.15
2019-04-27T02:38:10.055Z,7.03
2019-04-27T02:39:09.656Z,7.05
2019-04-27T02:40:10.107Z,7.06
2019-04-27T02:41:09.971Z,7.03
2019-04-27T02:42:10.148Z,7.06
2019-04-27T02:43:10.287Z,7.03
2019-04-27T02:44:09.789Z,7.05
2019-04-27T02:45:09.678Z,6.97
2019-04-27T02:46:09.685Z,6.93
2019-04-27T02:47:10.406Z,6.92
2019-04-27T02:48:09.900Z,6.89
2019-04-27T02:49:10.487Z,6.95
2019-04-27T02:50:10.732Z,6.88
2019-04-27T02:51:10.081Z,6.85
2019-04-27T02:52:09.427Z,6.95
2019-04-27T02:53:11.124Z,6.95
2019-04-27T02:54:09.931Z,6.89
2019-04-27T02:55:09.568Z,6.99
2019-04-27T02:56:10.326Z,7.07
2019-04-27T02:57:10.150Z,7.03
2019-04-27T02:58:10.067Z,7.05
2019-04-27T02:59:11.474Z,7.06
2019-04-27T03:00:10.204Z,7.06
2019-04-27T03:01:09.958Z,7.05
2019-04-27T03:02:10.498Z,7.10
2019-04-27T03:03:10.208Z,7.13
2019-04-27T03:04:09.984Z,7.15
2019-04-27T03:05:12.822Z,7.11
2019-04-27T03:06:09.822Z,7.18
2019-04-27T03:07:07.941Z,7.20
2019-04-27T03:08:10.271Z,7.15
2019-04-27T03:09:10.224Z,7.20
2019-04-27T03:10:09.873Z,7.14
2019-04-27T03:11:09.763Z,7.00
2019-04-27T03:12:10.127Z,7.06
2019-04-27T03:13:07.572Z,7.13
2019-04-27T03:14:15.099Z,7.13
2019-04-27T03:15:07.463Z,7.03
2019-04-27T03:16:07.416Z,6.99
2019-04-27T03:17:09.775Z,7.10
2019-04-27T03:18:09.724Z,7.11
2019-04-27T03:19:14.925Z,7.03
2019-04-27T03:20:10.085Z,7.02
2019-04-27T03:21:07.130Z,7.13
2019-04-27T03:22:09.457Z,7.06
2019-04-27T03:23:07.025Z,7.07
2019-04-27T03:24:06.968Z,7.07
2019-04-27T03:25:06.909Z,7.17
2019-04-27T03:26:06.885Z,7.14
2019-04-27T03:27:06.799Z,7.05
2019-04-27T03:28:06.773Z,7.17
2019-04-27T03:29:06.687Z,7.11
2019-04-27T03:30:06.632Z,7.11
2019-04-27T03:31:06.592Z,7.15
2019-04-27T03:32:06.522Z,6.99
2019-04-27T03:33:06.502Z,7.15
2019-04-27T03:34:06.418Z,7.02
2019-04-27T03:35:06.361Z,7.18
2019-04-27T03:36:06.302Z,7.23
2019-04-27T03:37:06.243Z,7.20
2019-04-27T03:38:06.229Z,7.02
2019-04-27T03:39:06.137Z,7.06
2019-04-27T03:40:06.077Z,7.02
2019-04-27T03:41:06.025Z,7.14
2019-04-27T03:42:06.001Z,7.07
2019-04-27T03:43:05.913Z,7.06
2019-04-27T03:44:05.860Z,7.05
2019-04-27T03:45:05.828Z,7.00
2019-04-27T03:46:05.758Z,7.11
2019-04-27T03:47:05.736Z,7.00
2019-04-27T03:48:05.637Z,7.06
2019-04-27T03:49:05.590Z,7.14
2019-04-27T03:50:05.524Z,7.20
2019-04-27T03:51:05.472Z,7.13
2019-04-27T03:52:05.453Z,7.25
2019-04-27T03:53:05.362Z,7.21
2019-04-27T03:54:05.304Z,7.20
2019-04-27T03:55:05.248Z,7.32
2019-04-27T03:56:05.192Z,7.25
2019-04-27T03:57:05.189Z,7.20
2019-04-27T03:58:05.084Z,7.20
2019-04-27T03:59:05.030Z,7.15
2019-04-27T04:00:05.002Z,7.20
2019-04-27T04:01:04.926Z,7.02
2019-04-27T04:02:04.888Z,7.03
2019-04-27T04:03:04.842Z,7.13
2019-04-27T04:04:04.752Z,7.11
2019-04-27T04:05:04.700Z,7.03
2019-04-27T04:06:04.653Z,7.00
2019-04-27T04:07:04.589Z,7.03
2019-04-27T04:08:04.565Z,7.17
2019-04-27T04:09:04.476Z,7.17
2019-04-27T04:10:04.436Z,7.20
2019-04-27T04:11:04.367Z,7.25
2019-04-27T04:12:04.313Z,7.24
2019-04-27T04:13:04.306Z,7.20
2019-04-27T04:14:04.240Z,7.25
2019-04-27T04:15:04.144Z,7.20
2019-04-27T04:16:07.455Z,7.17
2019-04-27T04:17:04.035Z,7.05
2019-04-27T04:18:03.978Z,6.99
2019-04-27T04:19:03.955Z,7.02
2019-04-27T04:20:03.867Z,7.00
2019-04-27T04:21:03.813Z,7.14
2019-04-27T04:22:03.755Z,7.02
2019-04-27T04:23:03.715Z,6.92
2019-04-27T04:24:03.681Z,6.88
2019-04-27T04:25:03.592Z,6.89
2019-04-27T04:26:03.537Z,6.85
2019-04-27T04:27:03.487Z,6.79
2019-04-27T04:28:03.429Z,6.78
2019-04-27T04:29:03.406Z,6.85
2019-04-27T04:30:03.320Z,6.79
2019-04-27T04:31:03.297Z,6.78
2019-04-27T04:32:03.214Z,6.72
2019-04-27T04:33:03.155Z,6.77
2019-04-27T04:34:03.107Z,6.66
2019-04-27T04:35:03.069Z,6.70
2019-04-27T04:36:02.982Z,6.62
2019-04-27T04:37:02.929Z,6.64
2019-04-27T04:38:02.918Z,6.66
2019-04-27T04:39:02.819Z,6.70
2019-04-27T04:40:02.760Z,6.74
2019-04-27T04:41:02.705Z,6.75
2019-04-27T04:42:02.647Z,6.72
2019-04-27T04:43:03.285Z,6.69
2019-04-27T04:44:02.540Z,6.66
2019-04-27T04:45:02.487Z,6.77
2019-04-27T04:46:04.854Z,6.66
2019-04-27T04:47:02.372Z,6.78
2019-04-27T04:48:02.353Z,6.78
2019-04-27T04:49:02.259Z,6.77
2019-04-27T04:50:10.684Z,6.77
2019-04-27T04:51:02.153Z,6.78
2019-04-27T04:52:02.092Z,6.79
2019-04-27T04:53:02.038Z,6.69
2019-04-27T04:54:01.983Z,6.70
2019-04-27T04:55:02.702Z,6.67
2019-04-27T04:56:01.871Z,6.74
2019-04-27T04:57:01.817Z,6.70
2019-04-27T04:58:01.759Z,6.62
2019-04-27T04:59:01.705Z,6.66
2019-04-27T05:00:01.680Z,6.77
2019-04-27T05:01:02.007Z,6.81
2019-04-27T05:02:02.454Z,6.89
2019-04-27T05:03:01.481Z,6.95
2019-04-27T05:04:01.425Z,6.89
2019-04-27T05:05:01.373Z,6.89
2019-04-27T05:06:01.352Z,6.89
2019-04-27T05:07:01.259Z,6.96
2019-04-27T05:08:01.204Z,7.03
2019-04-27T05:09:01.146Z,7.02
2019-04-27T05:10:01.093Z,7.02
2019-04-27T05:11:01.070Z,6.97
2019-04-27T05:12:00.981Z,7.02
2019-04-27T05:13:00.926Z,7.05
2019-04-27T05:14:01.544Z,7.11
2019-04-27T05:15:00.816Z,7.05
2019-04-27T05:16:00.758Z,7.20
2019-04-27T05:17:00.741Z,7.13
2019-04-27T05:18:00.649Z,7.25
2019-04-27T05:19:00.598Z,7.24
2019-04-27T05:20:00.538Z,7.28
2019-04-27T05:21:00.481Z,7.25
2019-04-27T05:22:00.458Z,7.42
2019-04-27T05:23:00.369Z,7.28
2019-04-27T05:24:00.733Z,7.23
2019-04-27T05:25:00.295Z,7.31
2019-04-27T05:26:00.204Z,7.24
2019-04-27T05:27:00.182Z,7.23
2019-04-27T05:28:00.127Z,7.42
2019-04-27T05:29:00.091Z,7.29
2019-04-27T05:30:00.244Z,7.33
2019-04-27T05:31:00.584Z,7.25
2019-04-27T05:31:59.876Z,7.32
2019-04-27T05:32:59.816Z,7.33
2019-04-27T05:33:59.799Z,7.32
2019-04-27T05:34:59.749Z,7.42
2019-04-27T05:35:59.653Z,7.39
2019-04-27T05:37:01.111Z,7.40
2019-04-27T05:38:00.929Z,7.38
2019-04-27T05:38:59.806Z,7.36
2019-04-27T05:39:59.433Z,7.40
2019-04-27T05:40:59.409Z,7.38
2019-04-27T05:41:59.679Z,7.42
2019-04-27T05:42:59.301Z,7.43
2019-04-27T05:43:59.343Z,7.54
2019-04-27T05:44:59.174Z,7.57
2019-04-27T05:46:01.026Z,7.63
2019-04-27T05:46:59.042Z,7.77
2019-04-27T05:48:00.677Z,7.75
2019-04-27T05:48:59.905Z,7.82
2019-04-27T05:49:58.970Z,7.85
2019-04-27T05:51:01.920Z,7.91
2019-04-27T05:51:59.407Z,8.03
2019-04-27T05:52:59.717Z,8.03
2019-04-27T05:53:58.767Z,8.03
2019-04-27T05:54:59.113Z,8.12
2019-04-27T05:55:59.464Z,8.12
2019-04-27T05:56:59.195Z,8.15
2019-04-27T05:57:59.180Z,8.18
2019-04-27T05:59:00.375Z,8.24
2019-04-27T06:00:01.066Z,8.26
2019-04-27T06:00:59.476Z,8.31
2019-04-27T06:01:59.276Z,8.33
2019-04-27T06:02:59.066Z,8.27
2019-04-27T06:03:58.829Z,8.38
2019-04-27T06:05:00.132Z,8.46
2019-04-27T06:05:59.384Z,8.49
2019-04-27T06:06:58.807Z,8.53
2019-04-27T06:07:58.913Z,8.58
2019-04-27T06:08:59.391Z,8.71
2019-04-27T06:09:59.541Z,8.70
2019-04-27T06:10:59.226Z,8.69
2019-04-27T06:11:59.065Z,8.71
2019-04-27T06:12:57.658Z,8.73
2019-04-27T06:13:59.221Z,8.73
2019-04-27T06:14:57.506Z,8.79
2019-04-27T06:15:59.115Z,8.82
2019-04-27T06:16:59.468Z,8.88
2019-04-27T06:17:57.375Z,8.89
2019-04-27T06:18:57.292Z,8.94
2019-04-27T06:19:59.217Z,8.99
2019-04-27T06:20:57.178Z,8.89
2019-04-27T06:21:57.125Z,8.99
2019-04-27T06:22:58.734Z,8.89
2019-04-27T06:23:58.723Z,8.95
2019-04-27T06:24:56.960Z,9.04
2019-04-27T06:25:56.923Z,9.14
2019-04-27T06:26:56.855Z,9.19
2019-04-27T06:27:56.803Z,9.10
2019-04-27T06:28:56.781Z,9.19
2019-04-27T06:29:56.690Z,9.19
2019-04-27T06:30:56.637Z,9.23
2019-04-27T06:31:56.587Z,9.26
2019-04-27T06:32:56.524Z,9.22
2019-04-27T06:33:56.501Z,9.25
2019-04-27T06:34:56.418Z,9.22
2019-04-27T06:35:56.359Z,9.25
2019-04-27T06:36:56.310Z,9.18
2019-04-27T06:37:56.255Z,9.31
2019-04-27T06:38:56.231Z,9.23
2019-04-27T06:39:56.147Z,9.36
2019-04-27T06:40:56.089Z,9.41
2019-04-27T06:41:56.036Z,9.36
2019-04-27T06:42:55.992Z,9.40
2019-04-27T06:43:56.000Z,9.37
2019-04-27T06:44:55.873Z,9.47
2019-04-27T06:45:55.817Z,9.46
2019-04-27T06:46:55.763Z,9.55
2019-04-27T06:47:55.709Z,9.54
2019-04-27T06:48:55.685Z,9.51
2019-04-27T06:49:55.601Z,9.59
2019-04-27T06:51:02.645Z,9.54
2019-04-27T06:51:55.524Z,9.50
2019-04-27T06:52:55.443Z,9.50
2019-04-27T06:53:55.387Z,9.58
2019-04-27T06:54:55.412Z,9.50
2019-04-27T06:55:55.277Z,9.54
2019-04-27T06:56:55.223Z,9.66
2019-04-27T06:57:55.165Z,9.59
2019-04-27T06:58:55.119Z,9.56
2019-04-27T06:59:55.090Z,9.69
2019-04-27T07:00:55.035Z,9.58
2019-04-27T07:01:54.965Z,9.72
2019-04-27T07:02:55.427Z,9.73
2019-04-27T07:03:54.843Z,9.80
2019-04-27T07:04:54.786Z,9.86
2019-04-27T07:05:54.764Z,9.86
2019-04-27T07:06:56.219Z,9.92
2019-04-27T07:07:54.623Z,9.89
2019-04-27T07:08:55.289Z,9.99
2019-04-27T07:09:54.525Z,10.04
2019-04-27T07:10:54.497Z,10.13
2019-04-27T07:11:54.442Z,10.15
2019-04-27T07:12:54.351Z,10.20
2019-04-27T07:13:54.304Z,10.19
2019-04-27T07:14:55.167Z,10.26
2019-04-27T07:15:54.191Z,10.25
2019-04-27T07:16:54.174Z,10.16
2019-04-27T07:17:54.117Z,10.13
2019-04-27T07:18:54.031Z,10.16
2019-04-27T07:19:53.981Z,10.19
2019-04-27T07:20:53.924Z,10.30
2019-04-27T07:21:53.868Z,10.37
2019-04-27T07:22:53.854Z,10.38
2019-04-27T07:23:53.761Z,10.37
2019-04-27T07:24:53.714Z,10.49
2019-04-27T07:25:53.655Z,10.54
2019-04-27T07:26:53.601Z,10.57
2019-04-27T07:27:53.576Z,10.63
2019-04-27T07:28:53.493Z,10.75
2019-04-27T07:29:53.729Z,10.69
2019-04-27T07:30:53.387Z,10.72
2019-04-27T07:31:53.331Z,10.71
2019-04-27T07:32:53.315Z,10.79
2019-04-27T07:33:53.231Z,10.90
2019-04-27T07:34:55.299Z,10.87
2019-04-27T07:35:53.118Z,10.97
2019-04-27T07:36:53.067Z,10.93
2019-04-27T07:37:53.015Z,11.10
2019-04-27T07:38:52.997Z,11.08
2019-04-27T07:39:52.906Z,10.92
2019-04-27T07:40:52.854Z,10.94
2019-04-27T07:41:52.864Z,10.94
2019-04-27T07:42:52.762Z,10.90
2019-04-27T07:43:52.739Z,11.10
2019-04-27T07:44:52.839Z,11.22
2019-04-27T07:45:52.589Z,11.23
2019-04-27T07:46:52.534Z,11.12
2019-04-27T07:47:52.482Z,11.22
2019-04-27T07:48:52.467Z,11.22
2019-04-27T07:49:52.408Z,11.19
2019-04-27T07:50:52.322Z,11.19
2019-04-27T07:51:52.279Z,11.22
2019-04-27T07:52:52.217Z,11.22
2019-04-27T07:53:52.168Z,11.36
2019-04-27T07:54:52.144Z,11.45
2019-04-27T07:55:52.059Z,11.57
2019-04-27T07:56:52.004Z,11.55
2019-04-27T07:57:51.984Z,11.68
2019-04-27T07:58:51.902Z,11.91
2019-04-27T07:59:51.883Z,11.99
2019-04-27T08:00:51.827Z,12.07
2019-04-27T08:01:51.766Z,12.27
2019-04-27T08:02:51.695Z,12.27
2019-04-27T08:03:51.642Z,12.24
2019-04-27T08:04:51.628Z,12.18
2019-04-27T08:05:51.555Z,12.15
2019-04-27T08:06:51.493Z,12.13
2019-04-27T08:07:51.431Z,12.13
2019-04-27T08:08:51.378Z,12.21
2019-04-27T08:09:51.357Z,12.36
2019-04-27T08:10:51.274Z,12.61
2019-04-27T08:11:51.220Z,12.43
2019-04-27T08:12:51.200Z,12.47
2019-04-27T08:13:51.117Z,12.53
2019-04-27T08:14:51.068Z,12.78
2019-04-27T08:15:51.016Z,12.82
2019-04-27T08:16:50.969Z,12.83
2019-04-27T08:17:50.956Z,12.57
2019-04-27T08:18:51.657Z,12.45
2019-04-27T08:19:50.817Z,12.35
2019-04-27T08:20:50.754Z,12.36
2019-04-27T08:21:50.704Z,12.10
2019-04-27T08:22:50.686Z,12.28
2019-04-27T08:23:50.601Z,12.25
2019-04-27T08:24:50.549Z,12.62
2019-04-27T08:25:50.506Z,12.91
2019-04-27T08:26:50.482Z,12.73
2019-04-27T08:27:50.399Z,12.65
2019-04-27T08:28:50.349Z,13.18
2019-04-27T08:29:50.292Z,13.68
2019-04-27T08:30:50.282Z,14.28
2019-04-27T08:31:50.187Z,14.53
2019-04-27T08:32:50.140Z,13.90
2019-04-27T08:33:50.088Z,13.44
2019-04-27T08:34:50.039Z,12.90
2019-04-27T08:35:50.020Z,12.83
2019-04-27T08:36:49.997Z,12.64
2019-04-27T08:37:49.884Z,12.62
2019-04-27T08:38:49.835Z,12.61
2019-04-27T08:39:51.078Z,12.42
2019-04-27T08:40:49.761Z,12.47
2019-04-27T08:41:49.683Z,12.32
2019-04-27T08:42:51.314Z,12.32
2019-04-27T08:43:49.578Z,12.28
2019-04-27T08:44:49.832Z,12.43
2019-04-27T08:45:49.506Z,12.27
2019-04-27T08:46:49.614Z,12.18
2019-04-27T08:47:49.947Z,12.09
2019-04-27T08:48:49.353Z,12.09
2019-04-27T08:49:49.324Z,12.25
2019-04-27T08:50:49.219Z,12.24
2019-04-27T08:51:57.194Z,12.27
2019-04-27T08:52:50.158Z,12.25
2019-04-27T08:53:50.157Z,12.21
2019-04-27T08:54:50.806Z,12.18
2019-04-27T08:55:49.617Z,12.20
2019-04-27T08:56:49.463Z,12.25
2019-04-27T08:57:49.151Z,12.28
2019-04-27T08:58:49.682Z,12.42
2019-04-27T08:59:48.987Z,12.46
2019-04-27T09:00:49.162Z,12.46
2019-04-27T09:01:49.274Z,12.39
2019-04-27T09:02:50.241Z,12.31
2019-04-27T09:03:49.524Z,12.62
2019-04-27T09:04:49.571Z,12.55
2019-04-27T09:05:49.046Z,12.61
2019-04-27T09:06:49.350Z,12.68
2019-04-27T09:07:49.621Z,12.60
2019-04-27T09:08:49.633Z,12.58
2019-04-27T09:09:49.804Z,12.73
2019-04-27T09:10:48.894Z,12.76
2019-04-27T09:11:49.423Z,12.87
2019-04-27T09:12:50.110Z,12.87
2019-04-27T09:13:48.735Z,13.04
2019-04-27T09:14:49.472Z,13.22
2019-04-27T09:15:49.437Z,13.54
2019-04-27T09:16:59.542Z,13.72
2019-04-27T09:17:48.827Z,13.70
2019-04-27T09:18:49.717Z,13.54
2019-04-27T09:19:49.133Z,13.39
2019-04-27T09:20:49.622Z,13.59
2019-04-27T09:21:48.568Z,13.72
2019-04-27T09:22:49.235Z,13.65
2019-04-27T09:23:48.897Z,13.52
2019-04-27T09:24:49.289Z,13.22
2019-04-27T09:25:47.423Z,12.94
2019-04-27T09:26:49.161Z,12.85
2019-04-27T09:27:49.148Z,12.72
2019-04-27T09:28:49.163Z,12.79
2019-04-27T09:29:47.221Z,12.75
2019-04-27T09:30:47.168Z,12.80
2019-04-27T09:31:49.019Z,12.80
2019-04-27T09:32:47.074Z,12.85
2019-04-27T09:33:47.018Z,12.93
2019-04-27T09:34:46.990Z,12.94
2019-04-27T09:35:46.946Z,12.97
2019-04-27T09:36:46.871Z,13.13
2019-04-27T09:37:46.811Z,13.50
2019-04-27T09:38:47.630Z,13.57
2019-04-27T09:39:46.716Z,13.62
2019-04-27T09:40:46.680Z,13.31
2019-04-27T09:41:48.368Z,13.08
2019-04-27T09:42:46.559Z,12.95
2019-04-27T09:43:46.685Z,12.95
2019-04-27T09:44:47.676Z,13.01
2019-04-27T09:45:47.195Z,13.03
2019-04-27T09:46:47.514Z,13.03
2019-04-27T09:47:46.797Z,13.08
2019-04-27T09:48:46.685Z,13.16
2019-04-27T09:49:46.251Z,13.19
2019-04-27T09:50:46.649Z,13.01
2019-04-27T09:51:46.109Z,12.87
2019-04-27T09:52:46.070Z,12.86
2019-04-27T09:53:46.091Z,12.76
2019-04-27T09:54:48.040Z,12.79
2019-04-27T09:55:46.880Z,12.80
2019-04-27T09:56:46.728Z,12.95
2019-04-27T09:57:46.502Z,12.93
2019-04-27T09:58:47.110Z,12.91
2019-04-27T09:59:46.096Z,12.98
2019-04-27T10:00:45.836Z,13.03
2019-04-27T10:01:46.474Z,12.79
2019-04-27T10:02:46.567Z,12.75
2019-04-27T10:03:46.340Z,12.64
2019-04-27T10:04:46.187Z,12.62
2019-04-27T10:05:45.967Z,12.43
2019-04-27T10:06:46.174Z,12.42
2019-04-27T10:07:45.696Z,12.32
2019-04-27T10:08:45.267Z,12.24
2019-04-27T10:09:45.434Z,12.24
2019-04-27T10:10:46.017Z,12.22
2019-04-27T10:11:45.075Z,12.18
2019-04-27T10:12:46.620Z,12.02
2019-04-27T10:13:46.542Z,12.03
2019-04-27T10:14:45.405Z,12.10
2019-04-27T10:15:45.935Z,12.02
2019-04-27T10:16:46.735Z,12.12
2019-04-27T10:17:44.810Z,12.00
2019-04-27T10:18:45.860Z,11.91
2019-04-27T10:19:46.162Z,11.81
2019-04-27T10:20:58.169Z,11.70
2019-04-27T10:21:44.557Z,11.70
2019-04-27T10:22:46.181Z,11.62
2019-04-27T10:23:44.453Z,11.69
2019-04-27T10:24:44.400Z,11.72
2019-04-27T10:25:45.776Z,11.69
2019-04-27T10:26:44.336Z,11.66
2019-04-27T10:27:45.722Z,11.65
2019-04-27T10:28:45.767Z,11.54
2019-04-27T10:29:44.171Z,11.57
2019-04-27T10:30:45.721Z,11.41
2019-04-27T10:31:44.037Z,11.30
2019-04-27T10:32:43.985Z,11.26
2019-04-27T10:33:45.746Z,11.32
2019-04-27T10:34:43.883Z,11.26
2019-04-27T10:35:43.835Z,11.32
2019-04-27T10:36:43.775Z,11.33
2019-04-27T10:37:43.723Z,11.23
2019-04-27T10:38:43.693Z,11.25
2019-04-27T10:39:43.627Z,11.22
2019-04-27T10:40:43.567Z,11.19
2019-04-27T10:41:43.519Z,11.05
2019-04-27T10:42:43.486Z,11.07
2019-04-27T10:43:43.416Z,11.02
2019-04-27T10:44:43.387Z,10.99
2019-04-27T10:45:43.304Z,10.90
2019-04-27T10:46:43.253Z,10.86
2019-04-27T10:47:43.204Z,10.87
2019-04-27T10:48:43.147Z,10.82
2019-04-27T10:49:43.128Z,10.78
2019-04-27T10:50:43.045Z,10.74
2019-04-27T10:51:42.991Z,10.81
2019-04-27T10:52:52.818Z,10.89
2019-04-27T10:53:42.885Z,10.79
2019-04-27T10:54:42.865Z,10.82
2019-04-27T10:55:42.779Z,10.90
2019-04-27T10:56:42.728Z,10.94
2019-04-27T10:57:42.673Z,10.97
2019-04-27T10:58:42.622Z,10.89
2019-04-27T10:59:42.610Z,10.92
2019-04-27T11:00:42.518Z,11.10
2019-04-27T11:01:42.464Z,11.07
2019-04-27T11:02:42.415Z,11.18
2019-04-27T11:03:42.358Z,11.23
2019-04-27T11:04:42.347Z,11.19
2019-04-27T11:05:42.255Z,11.25
2019-04-27T11:06:42.202Z,11.25
2019-04-27T11:07:42.146Z,11.25
2019-04-27T11:08:42.096Z,11.23
2019-04-27T11:09:42.089Z,11.30
2019-04-27T11:10:41.997Z,11.26
2019-04-27T11:11:41.940Z,11.26
2019-04-27T11:12:41.884Z,11.25
2019-04-27T11:13:41.849Z,11.25
2019-04-27T11:14:41.813Z,11.25
2019-04-27T11:15:41.728Z,11.23
2019-04-27T11:16:41.707Z,11.25
2019-04-27T11:17:41.634Z,11.35
2019-04-27T11:18:41.581Z,11.26
2019-04-27T11:19:41.522Z,11.07
2019-04-27T11:20:41.518Z,11.08
2019-04-27T11:21:41.414Z,11.07
2019-04-27T11:22:41.361Z,11.12
2019-04-27T11:23:41.310Z,10.96
2019-04-27T11:24:41.255Z,10.97
2019-04-27T11:25:41.259Z,11.04
2019-04-27T11:26:41.194Z,10.96
2019-04-27T11:27:41.129Z,10.87
2019-04-27T11:28:42.756Z,10.90
2019-04-27T11:29:40.995Z,10.94
2019-04-27T11:30:40.944Z,11.05
2019-04-27T11:31:40.888Z,11.02
2019-04-27T11:32:40.877Z,11.07
2019-04-27T11:33:40.784Z,10.96
2019-04-27T11:34:40.733Z,11.05
2019-04-27T11:35:40.680Z,11.05
2019-04-27T11:36:40.626Z,11.05
2019-04-27T11:37:40.606Z,10.92
2019-04-27T11:38:40.519Z,10.86
2019-04-27T11:39:40.468Z,10.94
2019-04-27T11:40:40.420Z,10.93
2019-04-27T11:41:40.364Z,11.04
2019-04-27T11:42:40.343Z,11.00
2019-04-27T11:43:40.292Z,11.08
2019-04-27T11:44:40.212Z,11.04
2019-04-27T11:45:40.153Z,11.04
2019-04-27T11:46:40.100Z,11.05
2019-04-27T11:47:40.049Z,11.04
2019-04-27T11:48:40.019Z,11.07
2019-04-27T11:49:39.940Z,11.04
2019-04-27T11:50:39.890Z,11.11
2019-04-27T11:51:39.888Z,11.12
2019-04-27T11:52:39.785Z,11.18
2019-04-27T11:53:39.779Z,11.08
2019-04-27T11:54:39.687Z,11.15
2019-04-27T11:55:39.631Z,11.17
2019-04-27T11:56:39.576Z,11.23
2019-04-27T11:57:39.553Z,11.22
2019-04-27T11:58:39.469Z,11.15
2019-04-27T11:59:39.453Z,11.08
2019-04-27T12:00:39.388Z,11.11
2019-04-27T12:01:39.312Z,11.14
2019-04-27T12:02:40.155Z,11.10
2019-04-27T12:03:39.235Z,11.14
2019-04-27T12:04:39.155Z,11.11
2019-04-27T12:05:39.132Z,11.11
2019-04-27T12:06:39.052Z,11.12
2019-04-27T12:07:38.998Z,11.07
2019-04-27T12:08:38.943Z,11.17
2019-04-27T12:09:38.924Z,11.08
2019-04-27T12:10:38.840Z,11.12
2019-04-27T12:11:38.809Z,11.08
2019-04-27T12:12:38.734Z,10.90
2019-04-27T12:13:38.679Z,11.00
2019-04-27T12:14:38.664Z,10.94
2019-04-27T12:15:38.577Z,11.02
2019-04-27T12:16:38.523Z,10.90
2019-04-27T12:17:38.473Z,10.92
2019-04-27T12:18:38.460Z,11.02
2019-04-27T12:19:38.367Z,11.08
2019-04-27T12:20:38.312Z,11.18
2019-04-27T12:21:38.259Z,11.35
2019-04-27T12:22:38.206Z,11.35
2019-04-27T12:23:41.267Z,11.35
2019-04-27T12:24:38.103Z,11.44
2019-04-27T12:25:38.092Z,11.60
2019-04-27T12:26:37.995Z,11.47
2019-04-27T12:27:37.944Z,11.44
2019-04-27T12:28:37.892Z,11.43
2019-04-27T12:29:37.841Z,11.55
2019-04-27T12:30:37.830Z,11.44
2019-04-27T12:31:37.734Z,11.35
2019-04-27T12:32:37.682Z,11.43
2019-04-27T12:33:37.630Z,11.41
2019-04-27T12:34:37.576Z,11.43
2019-04-27T12:35:37.558Z,11.48
2019-04-27T12:36:37.472Z,11.51
2019-04-27T12:37:37.420Z,11.45
2019-04-27T12:38:37.367Z,11.47
2019-04-27T12:39:37.346Z,11.44
2019-04-27T12:40:37.296Z,11.44
2019-04-27T12:41:37.320Z,11.43
2019-04-27T12:42:37.162Z,11.41
2019-04-27T12:43:37.478Z,11.41
2019-04-27T12:44:42.181Z,11.33
2019-04-27T12:45:40.291Z,11.30
2019-04-27T12:46:36.953Z,11.19
2019-04-27T12:47:36.897Z,11.17
2019-04-27T12:48:37.497Z,11.15
2019-04-27T12:49:36.795Z,11.12
2019-04-27T12:50:36.779Z,11.05
2019-04-27T12:51:37.342Z,11.02
2019-04-27T12:52:36.634Z,10.97
2019-04-27T12:53:48.021Z,11.04
2019-04-27T12:54:36.571Z,11.00
2019-04-27T12:55:36.552Z,10.89
2019-04-27T12:56:36.424Z,10.94
2019-04-27T12:57:36.489Z,11.04
2019-04-27T12:58:36.595Z,11.08
2019-04-27T12:59:36.652Z,11.04
2019-04-27T13:00:36.238Z,11.11
2019-04-27T13:01:36.190Z,10.97
2019-04-27T13:02:36.138Z,10.93
2019-04-27T13:03:36.454Z,11.08
2019-04-27T13:04:36.494Z,11.08
2019-04-27T13:05:35.984Z,11.22